Logo AVAMET
Benvolgut visitant, si us plau, ingressa Recuperar contrasenya

Atzeneta del Maestrat Ajuntament

Dades diàries. Acumulats / Últims 30 dies disponibles

Data Temperatura (°C) Humitat rel. (%) Pressió rel. (hPa) Vent (km/h) Precipi-
tació (mm)
Mínima Mitjana Màxima Mínima Mitjana Màxima Mínima Mitjana Màxima Predom. Mitjana Ràfega
màxima
Mínima Mitjana Màxima Mínima Mitjana Màxima
Dades mensuals acumulades fins l'últim dia disponible
01/2018 -2,2 3,2 15,7 9,4 9,6 17,1 24,7   2,5 53,1 21,4
Dades anuals acumulades fins l'últim dia disponible
2018 -2,2 3,2 15,7 9,4 9,6 17,1 24,7   2,5 53,1 21,4
Últims 30 dies disponibles
22-01-2018 6,3     15,7     24,7 SW 2,3 22,5 0,0
21-01-2018 15,7     18,2     22,2 NE 8,0 53,1 0,0
20-01-2018 4,6     12,3     20,7 SW 2,6 32,2 0,0
19-01-2018 2,4     10,2     18,4 NE 3,1 27,4 0,0
18-01-2018 -1,6     6,1     16,1 SW 1,4 16,1 0,0
17-01-2018 3,8     12,8     19,7 SW 3,9 40,2 0,0
16-01-2018 -0,4     4,4     21,1 ESE 1,0 14,5 0,0
15-01-2018 0,3     6,1     13,9 SW 2,6 17,7 0,0
14-01-2018 -1,7     4,8     13,1 SW 1,8 17,7 0,0
12-01-2018 6,3     9,1     14,6 SW 2,9 22,5 0,0
11-01-2018 5,2     9,3     12,1 NE 5,8 43,5 0,0
10-01-2018 1,7     3,7     9,6 SW 0,3 6,4 0,0
09-01-2018 -2,2     3,7     11,4 SW 0,5 9,7 0,2
08-01-2018 -1,5     4,0     12,5 SW 0,6 12,9 0,2
07-01-2018 0,2     5,5     11,2 SW 0,8 14,5 1,2
06-01-2018 0,1     5,2     12,3 SW 1,0 30,6 19,8
05-01-2018 1,2     8,3     18,6 SW 1,4 25,7 0,0
04-01-2018 6,2     13,9     22,9 SW 1,9 17,7 0,0
03-01-2018 9,7     17,1     23,2 SW 3,2 29,0 0,0
02-01-2018 5,1     13,2     21,2 SW 2,1 27,4 0,0
01-01-2018 5,4     12,8     19,2 NE 4,3 49,9 0,0
31-12-2017 0,8     8,4     18,5 SW 1,4 35,4 0,0
30-12-2017 2,0     10,2     22,1 SW 1,1 11,3 0,0
29-12-2017 2,7     11,1     19,6 SW 2,9 51,5 0,0
28-12-2017 9,3     13,3     17,8 NE 5,5 33,8 0,0
27-12-2017 4,1     11,1     13,9 SW 10,0 62,8 1,0
26-12-2017 0,1     5,3     14,5 SW 0,8 17,7 0,4
25-12-2017 -2,5     4,2     14,5 SW 1,3 14,5 0,4
24-12-2017 -1,2     5,6     16,7 SW 0,8 16,1 0,0
23-12-2017 0,3     6,1     14,9 SW 1,8 17,7 0,0
Últims 13 mesos disponibles
12/2017 -5,3 0,5 9,3 7,4 8,4 15,3 22,1 3,2 62,8 2,2
11/2017 -2,5 3,7 9,8 10,5 12,3 18,6 23,7 2,9 61,2 3,4
10/2017 4,9 9,8 16,7 16,7 18,3 24,8 29,8 2,1 25,7 37,2
09/2017 6,7 12,7 17,6 19,0 18,6 26,5 34,1 2,6 38,6 47,8
08/2017 10,7 16,7 21,0 23,6 25,3 30,5 36,9 3,1 32,2 50,2
07/2017 11,6 17,0 21,3 24,1 20,8 30,8 34,5 3,6 30,6 3,0
06/2017 11,1 15,3 19,7 23,3 19,9 30,1 34,0 3,6 40,2 16,4
05/2017 3,5 9,6 14,3 17,7 19,6 25,4 30,8 3,4 35,4 6,8
04/2017 -1,1 4,8 9,9 12,9 12,1 20,6 27,9 3,0 40,2 23,6
03/2017 -0,3 3,5 7,6 11,4 11,1 19,8 28,0 2,6 43,5 45,6
02/2017 -0,7 3,4 10,4 9,0 7,1 15,4 20,2 2,9 67,6 23,8
01/2017 -3,0 0,9 8,3 6,6 4,1 12,9 18,9 4,0 69,2 79,8
Tots els anys disponibles
2017 -5,3 8,2 21,3 15,2 4,1 22,6 36,9 3,1 69,2 339,8
Temperatura (°C)
Humitat relativa (%)
Velocitat del vent (km/h) i direcció (°)
Pressió (hPa) i precipitació (mm)
Nota sobre les dades: s'avisa a l'usuari de la provisionalitat i no oficialitat d'aquestes dades
Logo AVAMET blanc
Llicència de Creative CommonsLa web d'AVAMET i els seus continguts estan subjectes a una llicència de
Reconeixement - No Comercial - Compartir igual
Properes estacions: Sinarcas - La Raílla (soci)  - - - - -  Últimes estacions: Castell de Castells - Font de la Bota (AVAMET), Ontinyent - C. Pureza de María (soci), Albuixec (Inforatge), Petrer (Inforatge), Calp (Inforatge), Xàtiva - Ajuntament (Inforatge), El Toro - Cerrogil (soci) - - - - - - - - - - - - Properes estacions: Sinarcas - La Raílla (soci)  - - - - -  Últimes estacions: Castell de Castells - Font de la Bota (AVAMET), Ontinyent - C. Pureza de María (soci), Albuixec (Inforatge), Petrer (Inforatge), Calp (Inforatge), Xàtiva - Ajuntament (Inforatge), El Toro - Cerrogil (soci)